Time;durP1;ratioP1;P1;durP2;ratioP2;P2;SDS_P1;SDS_P2;PMS_P1;PMS_P2;Temp;Humidity;BMP_temperature;BMP_pressure;BME280_temperature;BME280_humidity;BME280_pressure;Samples;Min_cycle;Max_cycle;Signal;HPM_P1;HPM_P2
2024/04/17 00:00:16;;;;;;;12.97;5.90;;;;;;;;;;5512010;26;20274;-91
2024/04/17 00:02:42;;;;;;;8.27;4.20;;;;;;;;;;5512634;26;20233;-92
2024/04/17 00:05:10;;;;;;;11.33;4.40;;;;;;;;;;5493982;26;20727;-91
2024/04/17 00:07:36;;;;;;;9.10;4.73;;;;;;;;;;5492628;26;20281;-92
2024/04/17 00:10:05;;;;;;;6.87;4.93;;;;;;;;;;5502217;26;20232;-92
2024/04/17 00:12:30;;;;;;;11.50;4.80;;;;;;;;;;5529641;26;20677;-92
2024/04/17 00:15:01;;;;;;;13.83;5.53;;;;;;;;;;5530632;26;20288;-91
2024/04/17 00:17:27;;;;;;;10.20;5.30;;;;;;;;;;5528237;26;20273;-92
2024/04/17 00:19:56;;;;;;;7.93;5.03;;;;;;;;;;5527151;26;20553;-91
2024/04/17 00:22:21;;;;;;;10.27;4.70;;;;;;;;;;5514196;26;20230;-92
2024/04/17 00:24:50;;;;;;;13.83;5.37;;;;;;;;;;5531690;26;20539;-92
2024/04/17 00:27:15;;;;;;;11.00;5.07;;;;;;;;;;5529156;26;20218;-92
2024/04/17 00:29:44;;;;;;;10.73;4.60;;;;;;;;;;5531861;26;20296;-91
2024/04/17 00:32:12;;;;;;;12.83;5.00;;;;;;;;;;5525906;26;20219;-92
2024/04/17 00:34:41;;;;;;;8.57;4.70;;;;;;;;;;5494632;26;20292;-92
2024/04/17 00:37:06;;;;;;;8.30;4.87;;;;;;;;;;5492220;26;20251;-92
2024/04/17 00:39:36;;;;;;;11.80;5.47;;;;;;;;;;5494424;26;20679;-93
2024/04/17 00:42:02;;;;;;;8.03;4.47;;;;;;;;;;5506027;26;20276;-92
2024/04/17 00:44:31;;;;;;;10.63;4.50;;;;;;;;;;5494567;26;20642;-94
2024/04/17 00:46:56;;;;;;;8.00;4.20;;;;;;;;;;5491729;26;20578;-93
2024/04/17 00:49:28;;;;;;;10.13;4.23;;;;;;;;;;5503059;26;20235;-93
2024/04/17 00:51:55;;;;;;;7.47;4.33;;;;;;;;;;5529052;26;20215;-94
2024/04/17 00:54:23;;;;;;;10.47;4.93;;;;;;;;;;5531142;26;20215;-91
2024/04/17 00:56:49;;;;;;;10.37;4.67;;;;;;;;;;5528622;26;20298;-92
2024/04/17 00:59:18;;;;;;;7.13;4.47;;;;;;;;;;5531513;26;20247;-91
2024/04/17 01:01:44;;;;;;;7.37;4.73;;;;;;;;;;5516769;26;20233;-92
2024/04/17 01:04:12;;;;;;;13.83;5.60;;;;;;;;;;5493265;26;20262;-92
2024/04/17 01:06:41;;;;;;;13.87;4.60;;;;;;;;;;5491594;26;20224;-92
2024/04/17 01:09:10;;;;;;;8.33;4.50;;;;;;;;;;5521709;26;20257;-92
2024/04/17 01:11:39;;;;;;;9.47;4.60;;;;;;;;;;5506718;26;20266;-91
2024/04/17 01:14:08;;;;;;;8.70;4.20;;;;;;;;;;5520293;26;20268;-91
2024/04/17 01:16:34;;;;;;;9.27;4.50;;;;;;;;;;5526889;26;20253;-91
2024/04/17 01:19:03;;;;;;;9.90;4.90;;;;;;;;;;5530732;26;20255;-91
2024/04/17 01:21:28;;;;;;;11.03;4.30;;;;;;;;;;5509227;26;20261;-92
2024/04/17 01:24:00;;;;;;;8.17;4.70;;;;;;;;;;5530943;26;20674;-91
2024/04/17 01:26:25;;;;;;;7.63;4.23;;;;;;;;;;5517777;26;20229;-92
2024/04/17 01:28:54;;;;;;;8.90;4.77;;;;;;;;;;5493937;26;20712;-92
2024/04/17 01:31:20;;;;;;;8.60;5.13;;;;;;;;;;5491229;26;20307;-92
2024/04/17 01:33:48;;;;;;;11.30;4.40;;;;;;;;;;5503189;25;20232;-92
2024/04/17 01:36:14;;;;;;;9.43;5.03;;;;;;;;;;5497561;26;20267;-92
2024/04/17 01:38:44;;;;;;;13.50;5.10;;;;;;;;;;5519288;26;20308;-91
2024/04/17 01:41:13;;;;;;;12.90;4.30;;;;;;;;;;5530027;26;20274;-91
2024/04/17 01:43:42;;;;;;;9.77;4.27;;;;;;;;;;5534177;26;20243;-92
2024/04/17 01:46:08;;;;;;;12.60;4.37;;;;;;;;;;5531342;26;20315;-92
2024/04/17 01:48:36;;;;;;;7.47;4.90;;;;;;;;;;5534198;26;20212;-91
2024/04/17 01:51:02;;;;;;;8.97;4.37;;;;;;;;;;5529432;26;20688;-92
2024/04/17 01:53:30;;;;;;;8.43;4.70;;;;;;;;;;5533592;26;20258;-92
2024/04/17 01:55:56;;;;;;;12.37;5.70;;;;;;;;;;5531421;26;20229;-93
2024/04/17 01:58:28;;;;;;;8.97;4.47;;;;;;;;;;5506916;26;20611;-90
2024/04/17 02:00:53;;;;;;;13.03;5.10;;;;;;;;;;5493270;26;20228;-92
2024/04/17 02:03:22;;;;;;;13.20;6.00;;;;;;;;;;5496740;26;20217;-92
2024/04/17 02:05:48;;;;;;;8.13;5.33;;;;;;;;;;5494274;26;20310;-92
2024/04/17 02:08:16;;;;;;;10.03;4.47;;;;;;;;;;5496962;26;20221;-92
2024/04/17 02:10:42;;;;;;;9.83;4.83;;;;;;;;;;5492486;26;20229;-91
2024/04/17 02:13:10;;;;;;;8.33;4.47;;;;;;;;;;5509786;26;20742;-93
2024/04/17 02:15:39;;;;;;;12.47;5.70;;;;;;;;;;5531014;26;20287;-93
2024/04/17 02:18:08;;;;;;;10.57;5.23;;;;;;;;;;5533602;26;20672;-92
2024/04/17 02:20:33;;;;;;;9.93;5.13;;;;;;;;;;5531042;26;20259;-92
2024/04/17 02:23:02;;;;;;;10.40;5.13;;;;;;;;;;5531819;26;20227;-93
2024/04/17 02:25:28;;;;;;;12.67;5.20;;;;;;;;;;5530928;26;20260;-93
2024/04/17 02:27:56;;;;;;;14.10;6.03;;;;;;;;;;5533774;26;20234;-92
2024/04/17 02:30:22;;;;;;;6.73;4.70;;;;;;;;;;5529062;26;20240;-92
2024/04/17 02:32:53;;;;;;;11.47;5.10;;;;;;;;;;5515570;26;20228;-92
2024/04/17 02:35:19;;;;;;;8.33;4.97;;;;;;;;;;5530484;26;20224;-93
2024/04/17 02:37:47;;;;;;;8.47;4.97;;;;;;;;;;5532206;26;20259;-93
2024/04/17 02:40:13;;;;;;;6.47;4.27;;;;;;;;;;5498419;26;20230;-93
2024/04/17 02:42:41;;;;;;;11.27;5.23;;;;;;;;;;5533178;26;20389;-93
2024/04/17 02:45:07;;;;;;;14.20;5.63;;;;;;;;;;5500713;26;20229;-93
2024/04/17 02:47:36;;;;;;;14.93;5.03;;;;;;;;;;5511674;26;20610;-92
2024/04/17 02:50:05;;;;;;;9.63;5.20;;;;;;;;;;5530394;26;20220;-92
2024/04/17 02:52:33;;;;;;;9.30;4.87;;;;;;;;;;5516918;26;20230;-92
2024/04/17 02:55:01;;;;;;;8.43;5.37;;;;;;;;;;5529631;26;20228;-92
2024/04/17 02:57:29;;;;;;;8.60;4.80;;;;;;;;;;5533189;26;20229;-91
2024/04/17 02:59:55;;;;;;;11.30;4.50;;;;;;;;;;5528954;26;20635;-92
2024/04/17 03:02:23;;;;;;;16.13;4.87;;;;;;;;;;5510369;26;20231;-92
2024/04/17 03:04:50;;;;;;;7.20;3.77;;;;;;;;;;5492856;26;20260;-91
2024/04/17 03:07:21;;;;;;;9.77;4.83;;;;;;;;;;5494623;26;20218;-92
2024/04/17 03:09:47;;;;;;;12.57;5.07;;;;;;;;;;5506514;26;20231;-91
2024/04/17 03:12:15;;;;;;;11.07;5.40;;;;;;;;;;5531762;26;20254;-89
2024/04/17 03:14:41;;;;;;;9.23;6.53;;;;;;;;;;5523438;26;20230;-91
2024/04/17 03:17:09;;;;;;;9.97;5.33;;;;;;;;;;5505311;26;20285;-91
2024/04/17 03:19:35;;;;;;;14.87;5.53;;;;;;;;;;5529331;26;20232;-90
2024/04/17 03:22:04;;;;;;;11.67;5.30;;;;;;;;;;5531665;26;20796;-91
2024/04/17 03:24:32;;;;;;;9.70;4.63;;;;;;;;;;5500325;26;20563;-91
2024/04/17 03:27:01;;;;;;;10.03;5.13;;;;;;;;;;5518201;26;20276;-92
2024/04/17 03:29:26;;;;;;;10.60;4.60;;;;;;;;;;5518082;26;20560;-91
2024/04/17 03:31:55;;;;;;;9.03;5.07;;;;;;;;;;5510485;26;20258;-91
2024/04/17 03:34:20;;;;;;;9.30;4.83;;;;;;;;;;5529059;26;20229;-92
2024/04/17 03:36:49;;;;;;;10.40;5.27;;;;;;;;;;5532358;26;20708;-91
2024/04/17 03:39:17;;;;;;;10.07;5.87;;;;;;;;;;5527857;26;20731;-91
2024/04/17 03:41:49;;;;;;;10.00;4.40;;;;;;;;;;5528888;26;20233;-93
2024/04/17 03:44:17;;;;;;;9.10;5.60;;;;;;;;;;5528345;26;20217;-91
2024/04/17 03:46:45;;;;;;;12.27;5.37;;;;;;;;;;5492590;26;20261;-92
2024/04/17 03:49:14;;;;;;;9.73;5.13;;;;;;;;;;5492991;26;20219;-90
2024/04/17 03:51:40;;;;;;;8.70;4.70;;;;;;;;;;5500051;26;20233;-92
2024/04/17 03:54:08;;;;;;;7.90;4.53;;;;;;;;;;5531962;26;20290;-91
2024/04/17 03:56:34;;;;;;;10.90;4.90;;;;;;;;;;5530240;26;20307;-89
2024/04/17 03:59:05;;;;;;;13.53;5.23;;;;;;;;;;5530655;25;20226;-91
2024/04/17 04:01:36;;;;;;;11.30;4.90;;;;;;;;;;5526974;26;20241;-90
2024/04/17 04:04:04;;;;;;;10.47;5.03;;;;;;;;;;5530025;26;20775;-90
2024/04/17 04:06:30;;;;;;;10.43;5.10;;;;;;;;;;5492144;26;20261;-90
2024/04/17 04:08:58;;;;;;;12.47;5.70;;;;;;;;;;5505882;26;20231;-90
2024/04/17 04:11:24;;;;;;;12.10;6.07;;;;;;;;;;5522692;26;20257;-90
2024/04/17 04:13:53;;;;;;;9.07;4.97;;;;;;;;;;5526304;26;20240;-89
2024/04/17 04:16:21;;;;;;;9.57;5.07;;;;;;;;;;5511771;26;20229;-81
2024/04/17 04:18:50;;;;;;;13.93;5.37;;;;;;;;;;5494105;26;20269;-90
2024/04/17 04:21:15;;;;;;;8.13;5.27;;;;;;;;;;5506555;26;20226;-90
2024/04/17 04:23:44;;;;;;;8.63;4.50;;;;;;;;;;5531035;26;20231;-90
2024/04/17 04:26:10;;;;;;;21.63;12.53;;;;;;;;;;5499970;26;20230;-92
2024/04/17 04:28:40;;;;;;;9.47;5.83;;;;;;;;;;5526048;26;20224;-92
2024/04/17 04:31:06;;;;;;;10.03;5.87;;;;;;;;;;5521520;26;20225;-91
2024/04/17 04:33:37;;;;;;;9.93;5.50;;;;;;;;;;5521136;26;20283;-92
2024/04/17 04:36:03;;;;;;;10.50;5.20;;;;;;;;;;5527249;26;20225;-89
2024/04/17 04:38:31;;;;;;;9.90;4.90;;;;;;;;;;5520607;26;20267;-90
2024/04/17 04:40:57;;;;;;;10.93;5.23;;;;;;;;;;5491028;26;20288;-91
2024/04/17 04:43:26;;;;;;;7.07;5.47;;;;;;;;;;5494239;26;20323;-90
2024/04/17 04:45:52;;;;;;;12.30;5.80;;;;;;;;;;5517745;26;20244;-90
2024/04/17 04:48:21;;;;;;;7.53;5.00;;;;;;;;;;5531284;26;20248;-90
2024/04/17 04:50:50;;;;;;;12.77;5.80;;;;;;;;;;5528490;26;20256;-91
2024/04/17 04:53:18;;;;;;;16.53;6.30;;;;;;;;;;5512572;26;20265;-90
2024/04/17 04:55:54;;;;;;;8.70;5.77;;;;;;;;;;5490282;26;20235;-90
2024/04/17 04:58:22;;;;;;;8.97;4.90;;;;;;;;;;5526552;26;20300;-90
2024/04/17 05:00:48;;;;;;;16.17;5.73;;;;;;;;;;5505813;26;20234;-89
2024/04/17 05:03:16;;;;;;;11.23;6.30;;;;;;;;;;5493288;26;20522;-87
2024/04/17 05:05:43;;;;;;;10.70;5.40;;;;;;;;;;5490486;26;20247;-87
2024/04/17 05:08:14;;;;;;;12.30;5.60;;;;;;;;;;5493032;26;20223;-87
2024/04/17 05:10:41;;;;;;;9.67;4.97;;;;;;;;;;5490498;26;20233;-87
2024/04/17 05:13:09;;;;;;;13.70;5.87;;;;;;;;;;5490796;26;20260;-87
2024/04/17 05:15:36;;;;;;;14.90;6.10;;;;;;;;;;5511585;26;20229;-82
2024/04/17 05:18:04;;;;;;;10.30;5.40;;;;;;;;;;5517513;26;20240;-88
2024/04/17 05:20:30;;;;;;;9.03;5.30;;;;;;;;;;5501743;26;20228;-88
2024/04/17 05:22:58;;;;;;;10.23;6.83;;;;;;;;;;5529374;26;20260;-87
2024/04/17 05:25:27;;;;;;;17.73;8.83;;;;;;;;;;5525790;26;20256;-89
2024/04/17 05:27:55;;;;;;;14.87;8.20;;;;;;;;;;5525961;26;20547;-89
2024/04/17 05:30:21;;;;;;;13.23;5.83;;;;;;;;;;5488927;26;20273;-88
2024/04/17 05:32:50;;;;;;;14.17;7.83;;;;;;;;;;5515634;26;20226;-85
2024/04/17 05:35:15;;;;;;;11.73;5.73;;;;;;;;;;5505508;26;20229;-85
2024/04/17 05:37:44;;;;;;;19.73;10.37;;;;;;;;;;5527227;26;20731;-83
2024/04/17 05:40:10;;;;;;;13.67;6.23;;;;;;;;;;5508180;26;20235;-88
2024/04/17 05:42:41;;;;;;;23.63;10.07;;;;;;;;;;5491164;26;20302;-82
2024/04/17 05:45:07;;;;;;;16.27;5.93;;;;;;;;;;5488804;26;20730;-87
2024/04/17 05:47:35;;;;;;;14.97;6.37;;;;;;;;;;5523869;26;20829;-86
2024/04/17 05:50:01;;;;;;;11.43;5.97;;;;;;;;;;5503979;26;20234;-86
2024/04/17 05:52:31;;;;;;;10.23;5.87;;;;;;;;;;5499033;26;20313;-85
2024/04/17 05:54:57;;;;;;;12.30;6.00;;;;;;;;;;5503984;26;20326;-86
2024/04/17 05:57:25;;;;;;;13.53;5.77;;;;;;;;;;5490638;26;20232;-83
2024/04/17 05:59:54;;;;;;;13.83;6.30;;;;;;;;;;5510208;26;20238;-88
2024/04/17 06:02:22;;;;;;;13.73;5.60;;;;;;;;;;5504482;26;20231;-83
2024/04/17 06:04:48;;;;;;;13.77;5.83;;;;;;;;;;5508195;26;20266;-82
2024/04/17 06:07:16;;;;;;;14.77;6.27;;;;;;;;;;5527381;26;20232;-86
2024/04/17 06:09:42;;;;;;;14.93;6.07;;;;;;;;;;5501195;26;20232;-82
2024/04/17 06:12:11;;;;;;;20.23;6.83;;;;;;;;;;5527284;26;20226;-86
2024/04/17 06:14:37;;;;;;;14.87;6.63;;;;;;;;;;5511379;26;20275;-86
2024/04/17 06:17:08;;;;;;;10.00;6.93;;;;;;;;;;5514262;26;20278;-77
2024/04/17 06:19:33;;;;;;;10.73;6.37;;;;;;;;;;5487391;26;20719;-82
2024/04/17 06:22:02;;;;;;;12.17;6.93;;;;;;;;;;5494448;26;20288;-83
2024/04/17 06:24:28;;;;;;;13.87;6.10;;;;;;;;;;5527665;26;20265;-81
2024/04/17 06:26:56;;;;;;;14.77;6.43;;;;;;;;;;5507708;26;20287;-83
2024/04/17 06:29:22;;;;;;;15.10;6.90;;;;;;;;;;5512729;26;20248;-82
2024/04/17 06:31:51;;;;;;;10.73;6.17;;;;;;;;;;5496662;26;20357;-83
2024/04/17 06:34:19;;;;;;;12.23;5.90;;;;;;;;;;5528089;26;20229;-83
2024/04/17 06:36:48;;;;;;;13.30;5.80;;;;;;;;;;5503655;26;20292;-83
2024/04/17 06:39:14;;;;;;;18.37;6.77;;;;;;;;;;5510466;26;20288;-80
2024/04/17 06:41:42;;;;;;;14.10;5.53;;;;;;;;;;5517109;26;20333;-80
2024/04/17 06:44:08;;;;;;;16.63;5.77;;;;;;;;;;5490916;26;20365;-81
2024/04/17 06:46:36;;;;;;;11.97;5.93;;;;;;;;;;5523910;26;20712;-81
2024/04/17 06:49:02;;;;;;;14.80;6.30;;;;;;;;;;5527565;26;20277;-82
2024/04/17 06:51:33;;;;;;;15.93;5.67;;;;;;;;;;5522842;26;20734;-82
2024/04/17 06:53:59;;;;;;;8.40;5.20;;;;;;;;;;5508090;26;20266;-82
2024/04/17 06:56:28;;;;;;;13.93;5.30;;;;;;;;;;5529948;26;20232;-82
2024/04/17 06:58:54;;;;;;;12.13;5.47;;;;;;;;;;5506418;26;20742;-82
2024/04/17 07:01:22;;;;;;;13.07;6.77;;;;;;;;;;5492236;26;20232;-81
2024/04/17 07:03:48;;;;;;;9.70;5.30;;;;;;;;;;5490626;26;20370;-80
2024/04/17 07:06:16;;;;;;;13.70;5.70;;;;;;;;;;5517131;26;20225;-81
2024/04/17 07:08:45;;;;;;;11.37;6.03;;;;;;;;;;5490754;26;20233;-80
2024/04/17 07:11:13;;;;;;;10.33;4.37;;;;;;;;;;5528993;26;20230;-82
2024/04/17 07:13:40;;;;;;;9.90;5.50;;;;;;;;;;5527646;26;20231;-81
2024/04/17 07:16:11;;;;;;;10.83;5.17;;;;;;;;;;5529541;26;20223;-81
2024/04/17 07:18:37;;;;;;;10.90;3.80;;;;;;;;;;5526838;26;20303;-81
2024/04/17 07:21:06;;;;;;;9.03;4.53;;;;;;;;;;5528800;26;20335;-81
2024/04/17 07:23:31;;;;;;;16.77;6.10;;;;;;;;;;5526958;26;20274;-82
2024/04/17 07:26:03;;;;;;;8.63;4.90;;;;;;;;;;5492807;26;20289;-80
2024/04/17 07:28:28;;;;;;;18.50;5.13;;;;;;;;;;5492932;26;20335;-82
2024/04/17 07:30:57;;;;;;;12.50;4.73;;;;;;;;;;5529600;26;20239;-81
2024/04/17 07:33:22;;;;;;;13.47;4.23;;;;;;;;;;5498474;26;20237;-80
2024/04/17 07:36:00;;;;;;;12.43;4.23;;;;;;;;;;5492557;26;20237;-82
2024/04/17 07:38:25;;;;;;;14.37;4.80;;;;;;;;;;5495970;26;20231;-80
2024/04/17 07:40:58;;;;;;;10.40;5.60;;;;;;;;;;5529036;26;20328;-82
2024/04/17 07:43:30;;;;;;;11.93;5.20;;;;;;;;;;5495664;26;20237;-79
2024/04/17 07:45:59;;;;;;;9.63;5.10;;;;;;;;;;5510767;26;20235;-79
2024/04/17 07:48:24;;;;;;;11.97;5.33;;;;;;;;;;5500025;26;20223;-79
2024/04/17 07:50:53;;;;;;;9.70;4.53;;;;;;;;;;5510134;26;20279;-79
2024/04/17 07:53:19;;;;;;;10.03;4.30;;;;;;;;;;5513817;26;20328;-80
2024/04/17 07:55:47;;;;;;;12.43;4.60;;;;;;;;;;5491609;26;20700;-80
2024/04/17 07:58:13;;;;;;;10.03;3.90;;;;;;;;;;5514472;26;20237;-80
2024/04/17 08:00:44;;;;;;;10.30;3.70;;;;;;;;;;5515104;26;20344;-82
2024/04/17 08:03:11;;;;;;;17.17;4.27;;;;;;;;;;5502269;26;20228;-82
2024/04/17 08:05:40;;;;;;;15.30;4.43;;;;;;;;;;5505385;26;20735;-82
2024/04/17 08:08:06;;;;;;;8.83;4.27;;;;;;;;;;5489705;26;20770;-81
2024/04/17 08:10:34;;;;;;;10.23;4.53;;;;;;;;;;5492172;26;20236;-81
2024/04/17 08:13:11;;;;;;;8.33;3.83;;;;;;;;;;5511075;26;20229;-81
2024/04/17 08:15:44;;;;;;;11.57;5.37;;;;;;;;;;5517320;26;20231;-82
2024/04/17 08:18:10;;;;;;;9.00;3.90;;;;;;;;;;5526691;26;20283;-81
2024/04/17 08:20:39;;;;;;;14.87;5.53;;;;;;;;;;5521978;26;20233;-82
2024/04/17 08:23:05;;;;;;;7.47;4.17;;;;;;;;;;5509198;26;20606;-80
2024/04/17 08:25:33;;;;;;;8.00;4.43;;;;;;;;;;5523298;26;20240;-80
2024/04/17 08:27:59;;;;;;;13.93;3.90;;;;;;;;;;5509155;26;20236;-82
2024/04/17 08:30:27;;;;;;;13.63;4.60;;;;;;;;;;5505235;26;20270;-84
2024/04/17 08:32:58;;;;;;;10.37;4.00;;;;;;;;;;5526370;26;20223;-80
2024/04/17 08:35:24;;;;;;;16.73;4.07;;;;;;;;;;5525429;26;20566;-78
2024/04/17 08:37:53;;;;;;;14.57;4.17;;;;;;;;;;5506581;26;20276;-79
2024/04/17 08:40:18;;;;;;;8.80;4.33;;;;;;;;;;5500087;26;20266;-80
2024/04/17 08:42:51;;;;;;;14.53;3.40;;;;;;;;;;5505218;26;21464;-80
2024/04/17 08:45:21;;;;;;;8.50;4.03;;;;;;;;;;5501651;26;20232;-79
2024/04/17 08:47:49;;;;;;;9.33;3.80;;;;;;;;;;5526690;26;20235;-81
2024/04/17 08:50:19;;;;;;;9.63;4.17;;;;;;;;;;5492756;26;20236;-79
2024/04/17 08:52:48;;;;;;;13.13;3.97;;;;;;;;;;5516657;26;20330;-79
2024/04/17 08:55:14;;;;;;;12.87;4.53;;;;;;;;;;5504644;26;20235;-78
2024/04/17 08:57:42;;;;;;;22.07;4.23;;;;;;;;;;5528289;26;20243;-80
2024/04/17 09:00:12;;;;;;;12.10;3.90;;;;;;;;;;5509439;26;20237;-81
2024/04/17 09:02:41;;;;;;;9.00;3.50;;;;;;;;;;5494593;26;20240;-80
2024/04/17 09:05:07;;;;;;;6.50;4.03;;;;;;;;;;5525310;26;20270;-81
2024/04/17 09:07:42;;;;;;;11.40;3.33;;;;;;;;;;5522749;26;20723;-80
2024/04/17 09:10:08;;;;;;;8.70;3.30;;;;;;;;;;5507896;26;20262;-81
2024/04/17 09:12:38;;;;;;;8.53;3.67;;;;;;;;;;5521162;26;20236;-81
2024/04/17 09:15:05;;;;;;;13.80;4.97;;;;;;;;;;5525436;26;20266;-81
2024/04/17 09:17:33;;;;;;;12.07;3.27;;;;;;;;;;5518023;26;20795;-81
2024/04/17 09:19:59;;;;;;;13.07;4.07;;;;;;;;;;5488350;26;20237;-81
2024/04/17 09:22:28;;;;;;;6.37;2.43;;;;;;;;;;5523070;26;20265;-81
2024/04/17 09:24:56;;;;;;;4.53;2.63;;;;;;;;;;5505864;26;20719;-81
2024/04/17 09:27:25;;;;;;;9.73;3.10;;;;;;;;;;5516988;26;20774;-81
2024/04/17 09:29:50;;;;;;;7.77;2.90;;;;;;;;;;5508816;26;20798;-81
2024/04/17 09:32:19;;;;;;;11.37;3.67;;;;;;;;;;5517785;26;20326;-81
2024/04/17 09:34:45;;;;;;;15.70;3.67;;;;;;;;;;5510770;26;20232;-81
2024/04/17 09:37:14;;;;;;;12.10;4.17;;;;;;;;;;5519873;26;20289;-81
2024/04/17 09:39:39;;;;;;;9.47;3.23;;;;;;;;;;5510673;26;20295;-80
2024/04/17 09:42:12;;;;;;;8.03;3.43;;;;;;;;;;5513862;26;20240;-80
2024/04/17 09:44:39;;;;;;;10.53;4.10;;;;;;;;;;5524473;26;20236;-79
2024/04/17 09:47:11;;;;;;;7.83;3.13;;;;;;;;;;5514584;26;20259;-79
2024/04/17 09:49:38;;;;;;;10.87;3.13;;;;;;;;;;5524433;26;20244;-79
2024/04/17 09:52:08;;;;;;;12.00;3.33;;;;;;;;;;5527451;26;20268;-79
2024/04/17 09:54:34;;;;;;;10.10;2.77;;;;;;;;;;5524879;26;20232;-81
2024/04/17 09:57:03;;;;;;;15.70;2.60;;;;;;;;;;5510222;26;20241;-79
2024/04/17 09:59:33;;;;;;;9.17;3.93;;;;;;;;;;5528350;26;20764;-80
2024/04/17 10:02:02;;;;;;;13.50;3.73;;;;;;;;;;5530797;26;20231;-79
2024/04/17 10:04:29;;;;;;;7.30;2.67;;;;;;;;;;5503171;26;20293;-79
2024/04/17 10:06:58;;;;;;;10.57;3.23;;;;;;;;;;5510403;26;20237;-80
2024/04/17 10:09:25;;;;;;;8.07;3.50;;;;;;;;;;5524377;26;20240;-80
2024/04/17 10:11:54;;;;;;;10.13;2.77;;;;;;;;;;5509291;26;20711;-79
2024/04/17 10:14:20;;;;;;;6.93;2.80;;;;;;;;;;5523877;26;20715;-80
2024/04/17 10:16:52;;;;;;;9.67;3.13;;;;;;;;;;5530309;26;20271;-79
2024/04/17 10:19:18;;;;;;;8.57;3.40;;;;;;;;;;5491522;26;20280;-79
2024/04/17 10:21:46;;;;;;;9.17;4.37;;;;;;;;;;5493595;26;20237;-78
2024/04/17 10:24:12;;;;;;;8.77;2.90;;;;;;;;;;5516106;26;20237;-78
2024/04/17 10:26:45;;;;;;;9.80;3.43;;;;;;;;;;5494155;26;20769;-78
2024/04/17 10:29:15;;;;;;;7.53;3.30;;;;;;;;;;5525776;26;20228;-80
2024/04/17 10:31:43;;;;;;;16.10;3.30;;;;;;;;;;5506527;26;20285;-80
2024/04/17 10:34:12;;;;;;;12.20;3.70;;;;;;;;;;5514088;26;20225;-81
2024/04/17 10:36:40;;;;;;;5.93;2.60;;;;;;;;;;5493290;26;20362;-82
2024/04/17 10:39:06;;;;;;;3.70;2.30;;;;;;;;;;5507727;26;20227;-81
2024/04/17 10:41:34;;;;;;;8.93;3.77;;;;;;;;;;5516765;26;20295;-83
2024/04/17 10:44:00;;;;;;;13.30;3.53;;;;;;;;;;5511773;26;20233;-81
2024/04/17 10:46:32;;;;;;;15.87;3.20;;;;;;;;;;5521467;26;20278;-81
2024/04/17 10:48:58;;;;;;;9.20;4.87;;;;;;;;;;5527930;26;20281;-80
2024/04/17 10:51:29;;;;;;;7.73;2.77;;;;;;;;;;5522577;26;20711;-81
2024/04/17 10:53:55;;;;;;;10.20;4.40;;;;;;;;;;5490840;26;20237;-80
2024/04/17 10:56:24;;;;;;;9.07;3.37;;;;;;;;;;5526921;26;20274;-80
2024/04/17 10:58:50;;;;;;;9.73;3.70;;;;;;;;;;5527538;26;20286;-81
2024/04/17 11:01:19;;;;;;;12.97;3.67;;;;;;;;;;5524699;26;20237;-81
2024/04/17 11:03:45;;;;;;;10.83;3.53;;;;;;;;;;5511706;26;20227;-81
2024/04/17 11:06:14;;;;;;;8.03;3.00;;;;;;;;;;5505515;25;20224;-80
2024/04/17 11:08:44;;;;;;;8.73;3.50;;;;;;;;;;5527379;26;20266;-80
2024/04/17 11:11:12;;;;;;;8.60;3.30;;;;;;;;;;5519196;26;20255;-80
2024/04/17 11:13:40;;;;;;;6.90;3.03;;;;;;;;;;5490608;26;20653;-81
2024/04/17 11:16:09;;;;;;;11.27;3.00;;;;;;;;;;5529082;26;20290;-79
2024/04/17 11:18:35;;;;;;;5.83;3.43;;;;;;;;;;5502813;26;20237;-79
2024/04/17 11:21:04;;;;;;;5.90;3.00;;;;;;;;;;5517378;26;20586;-79
2024/04/17 11:23:38;;;;;;;10.17;3.47;;;;;;;;;;5514563;26;20853;-79
2024/04/17 11:26:11;;;;;;;11.13;3.67;;;;;;;;;;5492801;26;20241;-79
2024/04/17 11:28:39;;;;;;;10.53;3.07;;;;;;;;;;5518643;26;20347;-80
2024/04/17 11:31:09;;;;;;;12.47;4.10;;;;;;;;;;5509605;26;20287;-79
2024/04/17 11:33:35;;;;;;;9.17;3.00;;;;;;;;;;5508372;26;20281;-83
2024/04/17 11:36:11;;;;;;;15.67;4.33;;;;;;;;;;5517443;26;20233;-82
2024/04/17 11:38:37;;;;;;;9.00;3.20;;;;;;;;;;5514473;26;21466;-83
2024/04/17 11:41:06;;;;;;;10.20;2.40;;;;;;;;;;5507630;26;20245;-78
2024/04/17 11:43:34;;;;;;;10.23;3.43;;;;;;;;;;5522467;26;20239;-78
2024/04/17 11:46:03;;;;;;;8.07;3.43;;;;;;;;;;5529409;26;20224;-79
2024/04/17 11:48:31;;;;;;;6.93;2.93;;;;;;;;;;5526529;26;20270;-79
2024/04/17 11:50:57;;;;;;;12.33;4.53;;;;;;;;;;5503977;26;20362;-78
2024/04/17 11:53:25;;;;;;;12.83;4.57;;;;;;;;;;5492521;26;20232;-79
2024/04/17 11:55:51;;;;;;;16.77;3.70;;;;;;;;;;5510975;26;20364;-78
2024/04/17 11:58:20;;;;;;;8.83;2.43;;;;;;;;;;5493589;26;20716;-79
2024/04/17 12:00:49;;;;;;;11.77;3.03;;;;;;;;;;5514679;26;20235;-79
2024/04/17 12:03:20;;;;;;;10.63;2.57;;;;;;;;;;5491800;26;20268;-78
2024/04/17 12:05:46;;;;;;;10.53;2.93;;;;;;;;;;5514724;26;20737;-79
2024/04/17 12:08:15;;;;;;;9.47;3.03;;;;;;;;;;5505175;26;20615;-79
2024/04/17 12:10:41;;;;;;;12.60;3.80;;;;;;;;;;5526533;26;20231;-79
2024/04/17 12:13:09;;;;;;;6.77;3.50;;;;;;;;;;5529208;26;20236;-79
2024/04/17 12:15:37;;;;;;;10.60;2.93;;;;;;;;;;5499815;26;20237;-79
2024/04/17 12:18:09;;;;;;;6.23;2.83;;;;;;;;;;5507230;25;20277;-79
2024/04/17 12:20:34;;;;;;;5.47;3.40;;;;;;;;;;5501552;26;20229;-79
2024/04/17 12:23:03;;;;;;;11.40;4.30;;;;;;;;;;5492223;26;20245;-79
2024/04/17 12:28:16;;;;;;;7.87;2.70;;;;;;;;;;5529488;26;20331;-79
2024/04/17 12:30:46;;;;;;;7.53;2.93;;;;;;;;;;5500005;26;20236;-79
2024/04/17 12:33:17;;;;;;;11.23;3.97;;;;;;;;;;5510657;26;20283;-79
2024/04/17 12:35:45;;;;;;;10.10;3.17;;;;;;;;;;5502991;26;20235;-79
2024/04/17 12:38:13;;;;;;;10.83;3.60;;;;;;;;;;5499047;26;20237;-79
2024/04/17 12:40:42;;;;;;;9.60;3.23;;;;;;;;;;5513689;26;20756;-81
2024/04/17 12:43:10;;;;;;;5.43;3.40;;;;;;;;;;5525314;26;20620;-80
2024/04/17 12:45:38;;;;;;;7.00;3.10;;;;;;;;;;5507487;26;20237;-80
2024/04/17 12:48:05;;;;;;;9.63;3.63;;;;;;;;;;5492228;26;20264;-80
2024/04/17 12:50:36;;;;;;;10.47;3.83;;;;;;;;;;5529928;26;20784;-80
2024/04/17 12:53:04;;;;;;;13.07;4.23;;;;;;;;;;5524878;26;20270;-80
2024/04/17 12:55:30;;;;;;;11.20;3.90;;;;;;;;;;5508991;26;20232;-80
2024/04/17 12:57:59;;;;;;;12.17;3.30;;;;;;;;;;5520044;26;20599;-79
2024/04/17 13:00:27;;;;;;;11.07;3.50;;;;;;;;;;5525422;26;20232;-80
2024/04/17 13:02:53;;;;;;;5.70;2.80;;;;;;;;;;5501606;26;20311;-80
2024/04/17 13:05:21;;;;;;;19.07;3.33;;;;;;;;;;5528558;26;20335;-80
2024/04/17 13:07:50;;;;;;;15.07;4.27;;;;;;;;;;5522078;26;20232;-80
2024/04/17 13:10:18;;;;;;;9.43;3.10;;;;;;;;;;5510657;26;20252;-80
2024/04/17 13:12:44;;;;;;;13.90;3.70;;;;;;;;;;5526180;26;20337;-80
2024/04/17 13:15:13;;;;;;;11.03;2.97;;;;;;;;;;5528111;26;20239;-80
2024/04/17 13:17:40;;;;;;;10.07;4.17;;;;;;;;;;5525637;26;20232;-79
2024/04/17 13:20:09;;;;;;;7.67;2.87;;;;;;;;;;5506281;26;20299;-80
2024/04/17 13:22:35;;;;;;;12.53;4.07;;;;;;;;;;5523190;26;20277;-80
2024/04/17 13:25:07;;;;;;;12.87;3.00;;;;;;;;;;5528049;26;20236;-80
2024/04/17 13:27:32;;;;;;;8.53;2.83;;;;;;;;;;5525644;26;20292;-80
2024/04/17 13:30:01;;;;;;;14.93;3.53;;;;;;;;;;5503195;26;20677;-80
2024/04/17 13:32:26;;;;;;;8.70;3.63;;;;;;;;;;5509389;26;20225;-81
2024/04/17 13:34:57;;;;;;;9.40;3.50;;;;;;;;;;5490836;26;20283;-80
2024/04/17 13:37:24;;;;;;;15.17;4.10;;;;;;;;;;5500196;26;20220;-80
2024/04/17 13:39:56;;;;;;;5.93;2.53;;;;;;;;;;5527114;26;20308;-79
2024/04/17 13:42:24;;;;;;;11.60;3.33;;;;;;;;;;5501407;26;20277;-80
2024/04/17 13:44:53;;;;;;;7.73;3.07;;;;;;;;;;5527467;26;20607;-80
2024/04/17 13:47:19;;;;;;;11.47;3.27;;;;;;;;;;5525418;26;20269;-80
2024/04/17 13:49:47;;;;;;;7.07;3.63;;;;;;;;;;5527366;26;20274;-81
2024/04/17 13:52:13;;;;;;;10.70;4.13;;;;;;;;;;5509004;26;20275;-80
2024/04/17 13:54:42;;;;;;;11.20;3.07;;;;;;;;;;5518751;26;20575;-80
2024/04/17 13:57:08;;;;;;;10.27;3.90;;;;;;;;;;5525303;26;20236;-80
2024/04/17 13:59:39;;;;;;;9.00;2.87;;;;;;;;;;5527158;26;20276;-80
2024/04/17 14:02:04;;;;;;;9.27;3.23;;;;;;;;;;5504932;26;20562;-80
2024/04/17 14:04:33;;;;;;;14.67;4.33;;;;;;;;;;5496272;26;20282;-80
2024/04/17 14:06:59;;;;;;;8.63;2.63;;;;;;;;;;5508174;26;20233;-79
2024/04/17 14:09:28;;;;;;;7.60;2.83;;;;;;;;;;5523466;26;20331;-80
2024/04/17 14:11:54;;;;;;;7.97;2.30;;;;;;;;;;5503777;26;20244;-79
2024/04/17 14:14:22;;;;;;;8.13;2.87;;;;;;;;;;5500730;26;20319;-80
2024/04/17 14:16:51;;;;;;;9.70;4.03;;;;;;;;;;5524801;26;20614;-80
2024/04/17 14:19:19;;;;;;;12.60;3.27;;;;;;;;;;5507552;26;20592;-79
2024/04/17 14:21:45;;;;;;;6.63;2.73;;;;;;;;;;5524663;26;20232;-80
2024/04/17 14:24:13;;;;;;;7.03;3.23;;;;;;;;;;5527234;26;20274;-79
2024/04/17 14:26:39;;;;;;;3.90;3.10;;;;;;;;;;5524334;26;20232;-80
2024/04/17 14:29:07;;;;;;;13.37;3.43;;;;;;;;;;5526127;26;20236;-80
2024/04/17 14:31:33;;;;;;;10.43;3.30;;;;;;;;;;5525580;26;20270;-79
2024/04/17 14:34:04;;;;;;;6.90;2.90;;;;;;;;;;5498248;26;20296;-79
2024/04/17 14:36:30;;;;;;;9.30;4.27;;;;;;;;;;5509738;26;20277;-80
2024/04/17 14:38:58;;;;;;;5.40;2.53;;;;;;;;;;5526838;26;20236;-79
2024/04/17 14:41:24;;;;;;;5.93;3.23;;;;;;;;;;5525346;26;20282;-79